Weather at Cabo 1° Juan Román Airport

Public forecast

Using degrees Celsius for public forecast. Weather courtesy of forecast.io.

Current aviation weather report (METAR) for Cabo 1° Juan Román Airport

Report is more than 6 hours old.

Retrieved 2021/07/23 20:00 UTC (1 day ago):

SCAS 232000Z 25008KT 9999 SCT020 BKN040 08/05 Q1022

Closest aviation forecast (TAF) to Cabo 1° Juan Román Airport

Forecast is more than 6 hours old.

Closest forecast is Teniente Vidal Airport, 26.5 nm (49.0 km) ESE. Retrieved 2021/07/24 12:33 UTC (10 hours ago):

TAF SCCY 241110Z 2412/2424 03006KT 9999 FEW003 TN01/2412Z TX08/2418Z BECMG 2413/2415 CAVOK BECMG 2416/2418 VRB03KT